Irving, TX

3:35 AM CST on December 09, 2016 (GMT -0600)
Toler Lane, Irving, Texas USA | | Change Station

Elev 551 ft 32.84 °N, 96.96 °W | Updated 6 seconds ago

Clear
Clear
29.1 °F
Feels Like 25 °F
N
3.5
Wind Variable Wind from North
Gusts 3.5 mph

Today
High -- | Low -- °F
--% Chance of Precip.
Yesterday
High -- | Low -- °F
Precip. -- in
Pressure 30.68 in
Visibility 10.0 miles
Clouds Few 7000 ft
Windchill 25 °F
Dew Point 20 °F
Humidity 67%
Rainfall 0.00 in
Snow Depth Not available.
7:19 AM 5:21 PM
Waxing Gibbous, 72% visible
METAR KDAL 090853Z 35006KT 10SM FEW070 M02/M09 A3067 RMK AO2 SLP389 T10221089 56006 $
Pressure 30.68 in
Visibility 10.0 miles
Clouds Few 7000 ft
Windchill 25 °F
Dew Point 20 °F
Humidity 67%
Rainfall 0.00 in
Snow Depth Not available.
7:19 AM 5:21 PM
Waxing Gibbous, 72% visible
METAR KDAL 090853Z 35006KT 10SM FEW070 M02/M09 A3067 RMK AO2 SLP389 T10221089 56006 $

10-Day Weather Forecast

Almanac

Astronomy

Dec. 09, 2016 Rise Set
Actual Time
Civil Twilight
Nautical Twilight
Astronomical Twilight
Moon
Length of Visible Light
Length of Day
Tomorrow will be .
, % of the Moon is Illuminated

Today's Extremes

State Highs State Lows

Community

WunderPhotos

Upload Photos

1,956,371 photos uploaded!

WunderBlog® & News

Nearby

Air Quality

  Air Quality AQ Index Pollutant
Not available.

Snow Depth

Station Depth Elevation

Earthquake Activity

City Distance Mag. Time & Date
Minimum magnitude displayed is 2.5.

Coastal Water Temperatures

Place Temperature

Stations

Nearby Weather Stations

Station Location Temp. Windchill Dew Point Humidity Wind Precip. Elev Updated Type
                   

Watches & Warnings

There are currently no watches in effect.